Time;durP1;ratioP1;P1;durP2;ratioP2;P2;SDS_P1;SDS_P2;PMS_P1;PMS_P2;Temp;Humidity;BMP_temperature;BMP_pressure;BME280_temperature;BME280_humidity;BME280_pressure;Samples;Min_cycle;Max_cycle;Signal;HPM_P1;HPM_P2
2022/12/26 00:00:59;;;;;;;3.10;2.70;;;8.30;99.90;;;;;;6309737;22;20148;-38
2022/12/26 05:11:49;;;;;;;3.63;3.00;;;8.30;99.90;;;;;;6355145;22;20155;-32
2022/12/26 05:14:14;;;;;;;4.40;3.23;;;8.30;99.90;;;;;;6313234;22;20168;-35
2022/12/26 05:30:26;;;;;;;2.90;2.43;;;8.70;99.90;;;;;;6367277;22;20221;-34
2022/12/26 05:35:38;;;;;;;3.10;2.80;;;8.60;99.90;;;;;;6367021;22;20135;-33
2022/12/26 05:38:04;;;;;;;5.10;2.90;;;8.50;99.90;;;;;;6367016;22;20163;-33
2022/12/26 05:40:29;;;;;;;4.50;3.43;;;8.50;99.90;;;;;;6366703;22;20264;-34
2022/12/26 05:42:56;;;;;;;4.17;3.57;;;8.50;99.90;;;;;;6313471;22;20159;-34
2022/12/26 05:45:22;;;;;;;3.10;2.80;;;8.40;99.90;;;;;;6339038;22;20178;-34
2022/12/26 05:47:48;;;;;;;3.50;2.50;;;8.40;99.90;;;;;;6339263;22;20592;-34
2022/12/26 05:50:13;;;;;;;3.20;2.60;;;8.40;99.90;;;;;;6338547;22;20147;-33
2022/12/26 05:52:39;;;;;;;3.60;2.63;;;8.40;99.90;;;;;;6338951;22;20162;-34
2022/12/26 05:55:05;;;;;;;3.47;2.87;;;8.40;99.90;;;;;;6338588;22;20179;-33
2022/12/26 05:57:31;;;;;;;2.77;2.07;;;8.50;99.90;;;;;;6312812;22;20162;-33
2022/12/26 05:59:57;;;;;;;3.50;2.67;;;8.50;99.90;;;;;;6339108;22;20171;-35
2022/12/26 06:02:23;;;;;;;3.00;2.37;;;8.60;99.90;;;;;;6341567;22;20154;-34
2022/12/26 06:04:48;;;;;;;3.13;2.60;;;8.60;99.90;;;;;;6341601;22;20154;-35
2022/12/26 06:07:14;;;;;;;2.80;2.60;;;8.70;99.90;;;;;;6368275;22;20138;-35
2022/12/26 06:09:40;;;;;;;3.20;2.27;;;8.90;99.90;;;;;;6314936;22;20186;-34
2022/12/26 06:12:06;;;;;;;3.40;2.90;;;9.00;99.90;;;;;;6368928;22;20255;-34
2022/12/26 06:14:32;;;;;;;3.47;2.27;;;9.00;99.90;;;;;;6314949;22;20178;-36
2022/12/26 06:16:58;;;;;;;2.43;2.23;;;9.00;99.90;;;;;;6341381;22;20138;-34
2022/12/26 06:19:23;;;;;;;3.57;3.00;;;9.00;99.90;;;;;;6340961;22;20218;-34
2022/12/26 06:21:49;;;;;;;4.60;3.10;;;9.00;99.90;;;;;;6314535;22;20155;-35
2022/12/26 06:24:15;;;;;;;3.63;2.70;;;9.00;99.90;;;;;;6341081;22;20147;-34
2022/12/26 06:26:41;;;;;;;4.43;3.20;;;9.00;99.90;;;;;;6341533;22;20199;-33
2022/12/26 06:29:08;;;;;;;5.13;3.50;;;8.90;99.90;;;;;;6341290;22;20182;-34
2022/12/26 06:31:37;;;;;;;5.33;3.27;;;8.90;99.90;;;;;;6340876;22;20186;-34
2022/12/26 06:34:03;;;;;;;3.83;2.80;;;8.80;99.90;;;;;;6341211;22;20178;-35
2022/12/26 06:36:29;;;;;;;5.60;3.23;;;8.70;99.90;;;;;;6314674;22;20189;-34
2022/12/26 06:38:55;;;;;;;3.57;3.10;;;8.70;99.90;;;;;;6340801;22;20218;-34
2022/12/26 06:41:23;;;;;;;3.23;2.90;;;8.60;99.90;;;;;;6369036;22;20174;-35
2022/12/26 06:43:50;;;;;;;3.10;2.60;;;8.60;99.90;;;;;;6340484;22;20155;-34
2022/12/26 06:46:18;;;;;;;3.37;2.50;;;8.60;99.90;;;;;;6369011;22;20146;-33
2022/12/26 06:48:45;;;;;;;4.00;2.70;;;8.50;99.90;;;;;;6314695;22;20186;-35
2022/12/26 06:51:17;;;;;;;3.13;2.70;;;8.50;99.90;;;;;;6341045;22;20185;-34
2022/12/26 06:53:43;;;;;;;3.13;2.43;;;8.50;99.90;;;;;;6314870;22;20261;-34
2022/12/26 06:56:15;;;;;;;3.63;3.13;;;8.50;99.90;;;;;;6340721;22;20208;-35
2022/12/26 06:58:42;;;;;;;3.63;3.00;;;8.50;99.90;;;;;;6340278;22;20174;-34
2022/12/26 07:01:11;;;;;;;4.00;2.77;;;8.40;99.90;;;;;;6314383;22;20143;-34
2022/12/26 07:03:38;;;;;;;3.13;2.80;;;8.40;99.90;;;;;;6340663;22;20241;-34
2022/12/26 07:06:24;;;;;;;3.20;2.67;;;8.40;99.90;;;;;;6314643;22;20151;-35
2022/12/26 07:08:52;;;;;;;3.87;3.20;;;8.40;99.90;;;;;;6328470;22;20197;-34
2022/12/26 07:11:21;;;;;;;3.93;3.17;;;8.40;99.90;;;;;;6340535;22;20168;-34
2022/12/26 07:13:47;;;;;;;5.10;3.70;;;8.40;99.90;;;;;;6340187;22;20722;-34
2022/12/26 07:16:13;;;;;;;4.03;3.27;;;8.50;99.90;;;;;;6368264;22;20150;-33
2022/12/26 07:18:39;;;;;;;4.97;3.40;;;8.50;99.90;;;;;;6340536;22;20202;-33
2022/12/26 07:21:07;;;;;;;3.33;3.03;;;8.60;99.90;;;;;;6340859;22;20143;-34
2022/12/26 07:23:32;;;;;;;3.80;3.17;;;8.60;99.90;;;;;;6340837;22;20154;-35
2022/12/26 07:25:59;;;;;;;3.50;3.20;;;8.60;99.90;;;;;;6368492;22;20147;-35
2022/12/26 07:28:25;;;;;;;3.67;3.23;;;8.60;99.90;;;;;;6340109;22;20185;-35
2022/12/26 07:30:51;;;;;;;4.33;3.53;;;8.60;99.90;;;;;;6339919;22;20241;-35
2022/12/26 07:33:18;;;;;;;3.77;3.43;;;8.60;99.90;;;;;;6314233;22;20182;-34
2022/12/26 07:35:45;;;;;;;5.40;3.70;;;8.70;99.90;;;;;;6353847;22;20147;-35
2022/12/26 07:38:12;;;;;;;4.37;3.13;;;8.70;99.90;;;;;;6339212;22;20170;-34
2022/12/26 07:40:38;;;;;;;5.00;3.83;;;8.70;99.90;;;;;;6339012;22;20162;-37
2022/12/26 07:43:03;;;;;;;5.27;4.10;;;8.70;99.90;;;;;;6367440;22;20140;-35
2022/12/26 07:45:31;;;;;;;10.00;7.03;;;8.80;99.90;;;;;;6313622;22;20158;-34
2022/12/26 07:47:57;;;;;;;12.43;9.77;;;8.80;99.90;;;;;;6313971;22;20182;-34
2022/12/26 07:50:24;;;;;;;17.30;12.93;;;8.90;99.90;;;;;;6340519;22;20154;-34
2022/12/26 07:52:52;;;;;;;8.13;6.20;;;8.90;99.90;;;;;;6367541;22;20151;-35
2022/12/26 07:55:18;;;;;;;7.00;6.30;;;8.90;99.90;;;;;;6339719;22;20178;-34
2022/12/26 07:57:44;;;;;;;4.63;3.47;;;8.90;99.90;;;;;;6369418;22;20157;-34
2022/12/26 08:00:10;;;;;;;4.47;3.30;;;9.00;99.90;;;;;;6338668;22;20151;-35
2022/12/26 08:02:39;;;;;;;3.53;3.00;;;9.00;99.90;;;;;;6313768;22;20161;-35
2022/12/26 08:05:05;;;;;;;5.97;3.47;;;9.10;99.90;;;;;;6340358;22;20146;-34
2022/12/26 08:07:31;;;;;;;4.10;2.87;;;9.20;99.90;;;;;;6340552;22;20159;-36
2022/12/26 08:09:56;;;;;;;5.90;5.37;;;9.30;99.90;;;;;;6339627;22;20194;-35
2022/12/26 08:12:23;;;;;;;5.43;4.90;;;9.30;99.90;;;;;;6339626;22;20158;-34
2022/12/26 08:14:49;;;;;;;4.13;3.20;;;9.30;99.90;;;;;;6367862;22;20174;-33
2022/12/26 08:17:15;;;;;;;4.23;3.13;;;9.40;99.90;;;;;;6368147;22;20154;-34
2022/12/26 08:19:41;;;;;;;4.57;3.73;;;9.40;99.90;;;;;;6339771;22;20166;-34
2022/12/26 08:22:07;;;;;;;3.27;2.97;;;9.40;99.90;;;;;;6340385;22;20186;-35
2022/12/26 08:24:33;;;;;;;3.57;2.93;;;9.40;99.90;;;;;;6339740;22;20279;-33
2022/12/26 08:26:59;;;;;;;3.27;2.80;;;9.40;99.90;;;;;;6366959;22;20174;-34
2022/12/26 08:29:25;;;;;;;4.37;3.17;;;9.40;99.90;;;;;;6367333;22;20170;-34
2022/12/26 08:31:51;;;;;;;7.87;4.53;;;9.40;99.90;;;;;;6313215;22;20222;-35
2022/12/26 08:34:17;;;;;;;6.17;4.83;;;9.40;99.90;;;;;;6314381;22;20190;-35
2022/12/26 08:36:43;;;;;;;4.93;3.87;;;9.40;99.90;;;;;;6313294;22;20154;-34
2022/12/26 08:39:09;;;;;;;7.60;5.27;;;9.40;99.90;;;;;;6339505;22;20169;-34
2022/12/26 08:41:34;;;;;;;5.03;4.00;;;9.30;99.90;;;;;;6340044;22;20151;-34
2022/12/26 08:44:00;;;;;;;5.43;4.10;;;9.30;99.90;;;;;;6339893;22;20166;-34
2022/12/26 08:46:26;;;;;;;7.33;4.50;;;9.30;99.90;;;;;;6339852;22;20147;-34
2022/12/26 08:48:52;;;;;;;5.30;4.27;;;9.40;99.90;;;;;;6368159;22;20167;-33
2022/12/26 08:51:22;;;;;;;4.00;3.27;;;9.40;99.90;;;;;;6341315;22;20172;-34
2022/12/26 08:54:00;;;;;;;4.73;3.33;;;9.40;99.90;;;;;;6368878;22;20223;-35
2022/12/26 08:56:30;;;;;;;6.97;4.00;;;9.40;99.90;;;;;;6336899;22;20139;-32
2022/12/26 08:58:56;;;;;;;5.70;4.37;;;9.40;99.90;;;;;;6311695;22;20166;-33
2022/12/26 09:01:25;;;;;;;6.40;3.90;;;9.50;99.90;;;;;;6339514;22;20143;-34
2022/12/26 09:03:56;;;;;;;7.37;4.27;;;9.40;99.90;;;;;;6312864;22;20161;-34
2022/12/26 09:06:23;;;;;;;6.40;4.80;;;9.50;99.90;;;;;;6367262;22;20136;-33
2022/12/26 09:08:49;;;;;;;5.87;4.20;;;9.50;99.90;;;;;;6366501;22;20171;-32
2022/12/26 09:11:18;;;;;;;7.93;4.90;;;9.50;99.90;;;;;;6339424;22;20189;-34
2022/12/26 09:13:45;;;;;;;7.13;5.33;;;9.50;99.90;;;;;;6366584;22;20193;-32
2022/12/26 09:16:18;;;;;;;5.90;4.10;;;9.50;99.90;;;;;;6367323;22;20197;-32
2022/12/26 09:18:45;;;;;;;4.93;4.00;;;9.50;99.90;;;;;;6339366;22;20200;-34
2022/12/26 09:21:12;;;;;;;9.17;5.23;;;9.50;99.90;;;;;;6339134;22;20207;-34
2022/12/26 09:23:39;;;;;;;8.47;5.37;;;9.60;99.90;;;;;;6339224;22;20163;-35
2022/12/26 09:26:14;;;;;;;5.87;4.77;;;9.60;99.90;;;;;;6367792;22;20147;-35
2022/12/26 09:28:42;;;;;;;5.93;4.93;;;9.60;99.90;;;;;;6339825;22;20182;-34
2022/12/26 09:31:13;;;;;;;5.83;5.23;;;9.60;99.90;;;;;;6339629;22;20174;-34
2022/12/26 09:33:39;;;;;;;6.10;4.67;;;9.60;99.90;;;;;;6338933;22;20185;-34
2022/12/26 09:36:11;;;;;;;4.87;4.03;;;9.60;99.90;;;;;;6340233;22;20155;-34
2022/12/26 09:38:37;;;;;;;5.77;4.10;;;9.60;99.90;;;;;;6337946;22;20188;-35
2022/12/26 09:41:22;;;;;;;5.27;4.20;;;9.70;99.90;;;;;;6338466;22;20151;-34
2022/12/26 09:43:59;;;;;;;6.90;4.20;;;9.70;99.90;;;;;;6300580;22;20167;-35
2022/12/26 09:46:25;;;;;;;6.87;5.30;;;9.70;99.90;;;;;;6336536;22;20222;-32
2022/12/26 09:49:08;;;;;;;6.27;4.30;;;9.80;99.90;;;;;;6322419;22;20207;-32
2022/12/26 09:51:37;;;;;;;5.53;4.13;;;9.70;99.90;;;;;;6305616;22;20190;-32
2022/12/26 09:54:10;;;;;;;5.73;4.30;;;9.70;99.90;;;;;;6335409;22;20183;-32
2022/12/26 09:56:39;;;;;;;6.23;4.60;;;9.70;99.90;;;;;;6282258;22;20159;-32
2022/12/26 09:59:14;;;;;;;8.27;5.37;;;9.80;99.90;;;;;;6307087;22;20297;-34
2022/12/26 10:01:42;;;;;;;7.47;6.13;;;9.80;99.90;;;;;;6352714;22;20659;-89
2022/12/26 10:04:48;;;;;;;8.13;5.70;;;9.70;99.90;;;;;;6312912;22;20159;-89
2022/12/26 10:07:36;;;;;;;7.97;6.10;;;9.70;99.90;;;;;;6336959;22;20147;-88
2022/12/26 10:10:25;;;;;;;10.13;5.70;;;9.70;99.90;;;;;;6318388;22;20155;-88
2022/12/26 10:13:28;;;;;;;8.40;5.80;;;9.70;99.90;;;;;;6340925;22;20245;-88
2022/12/26 10:16:08;;;;;;;8.50;6.17;;;9.70;99.90;;;;;;6313985;22;20173;-88
2022/12/26 10:23:06;;;;;;;7.37;6.40;;;9.70;99.90;;;;;;6367366;22;20172;-88
2022/12/26 10:26:08;;;;;;;10.17;7.33;;;9.80;99.90;;;;;;6188328;23;20247;-88
2022/12/26 10:28:45;;;;;;;22.30;13.97;;;9.70;99.90;;;;;;6182153;23;20157;-89
2022/12/26 10:31:45;;;;;;;15.30;10.20;;;9.70;99.90;;;;;;6288752;22;20222;-88
2022/12/26 10:34:19;;;;;;;11.57;8.70;;;9.70;99.90;;;;;;6314930;22;20192;-88
2022/12/26 10:36:54;;;;;;;9.23;6.43;;;9.70;99.90;;;;;;6315190;22;20196;-88
2022/12/26 10:39:42;;;;;;;9.47;6.47;;;9.70;99.90;;;;;;6341190;22;20679;-88
2022/12/26 10:42:36;;;;;;;7.87;5.60;;;9.80;99.90;;;;;;6341598;22;20182;-88
2022/12/26 10:45:15;;;;;;;6.83;5.27;;;9.80;99.90;;;;;;6336938;22;20162;-88
2022/12/26 10:47:45;;;;;;;7.67;5.50;;;9.80;99.90;;;;;;6315035;22;20234;-88
2022/12/26 10:50:26;;;;;;;6.83;5.20;;;9.80;99.90;;;;;;6341546;22;20155;-88
2022/12/26 10:52:53;;;;;;;5.57;5.07;;;9.80;99.90;;;;;;6304445;22;20178;-87
2022/12/26 10:55:34;;;;;;;7.40;5.83;;;9.80;99.90;;;;;;6317623;22;20176;-88
2022/12/26 10:58:32;;;;;;;7.90;6.07;;;9.80;99.90;;;;;;6369047;22;20139;-87
2022/12/26 11:01:38;;;;;;;8.13;5.33;;;9.80;99.90;;;;;;6315051;22;20228;-88
2022/12/26 11:04:24;;;;;;;6.10;3.60;;;9.90;99.90;;;;;;6315149;22;20169;-88
2022/12/26 11:07:28;;;;;;;3.10;2.23;;;9.90;99.90;;;;;;6369539;22;20143;-88
2022/12/26 11:09:58;;;;;;;2.17;1.50;;;9.90;99.90;;;;;;6303906;22;20166;-88
2022/12/26 11:12:32;;;;;;;2.10;1.33;;;9.90;99.90;;;;;;6314896;22;20180;-88
2022/12/26 11:15:05;;;;;;;1.00;0.90;;;9.90;99.90;;;;;;6314426;22;20211;-88
2022/12/26 11:17:38;;;;;;;2.00;1.60;;;9.90;99.90;;;;;;6340189;22;20158;-88
2022/12/26 11:20:27;;;;;;;3.80;2.37;;;9.90;99.90;;;;;;6314319;22;20171;-88
2022/12/26 11:22:54;;;;;;;12.23;8.90;;;9.90;99.90;;;;;;6329838;22;20180;-88
2022/12/26 11:25:26;;;;;;;7.23;5.10;;;9.90;99.90;;;;;;6317061;22;20186;-88
2022/12/26 11:28:01;;;;;;;7.47;5.00;;;9.90;99.90;;;;;;6316914;22;20160;-88
2022/12/26 11:30:34;;;;;;;6.93;5.57;;;9.90;99.90;;;;;;6343054;22;20154;-88
2022/12/26 11:33:11;;;;;;;12.93;7.50;;;10.00;99.90;;;;;;6316652;22;20261;-88
2022/12/26 11:35:45;;;;;;;10.77;8.13;;;10.00;99.90;;;;;;6342896;22;20178;-88
2022/12/26 11:38:33;;;;;;;10.20;6.50;;;10.10;99.90;;;;;;6316927;22;20146;-88
2022/12/26 11:44:23;;;;;;;7.27;5.50;;;10.10;99.90;;;;;;6370652;22;20197;-88
2022/12/26 11:46:58;;;;;;;3.80;3.40;;;10.00;99.90;;;;;;6317525;22;20166;-88
2022/12/26 11:49:39;;;;;;;4.57;3.30;;;10.10;99.90;;;;;;6342100;22;20154;-88
2022/12/26 11:52:39;;;;;;;2.80;2.50;;;10.10;99.90;;;;;;6343087;22;20178;-88
2022/12/26 11:55:23;;;;;;;4.40;3.40;;;10.10;99.90;;;;;;6308052;22;20179;-88
2022/12/26 11:58:09;;;;;;;4.07;2.90;;;10.10;99.90;;;;;;6317031;22;20156;-88
2022/12/26 12:01:12;;;;;;;2.10;1.90;;;10.00;99.90;;;;;;6342652;22;20151;-88
2022/12/26 12:03:43;;;;;;;2.20;2.00;;;10.10;99.90;;;;;;6316960;22;20158;-88
2022/12/26 12:06:48;;;;;;;2.00;1.50;;;10.00;99.90;;;;;;6316424;22;20151;-88
2022/12/26 12:09:22;;;;;;;2.70;1.63;;;10.00;99.90;;;;;;6309723;22;20212;-88
2022/12/26 12:11:54;;;;;;;1.80;1.50;;;10.00;99.90;;;;;;6316415;22;20288;-88
2022/12/26 12:18:04;;;;;;;1.90;1.60;;;10.00;99.90;;;;;;6342108;22;20161;-88
2022/12/26 12:21:04;;;;;;;5.27;2.40;;;9.90;99.90;;;;;;6342316;22;20177;-89
2022/12/26 12:24:36;;;;;;;4.20;2.00;;;9.90;99.90;;;;;;6340010;22;20549;-88
2022/12/26 12:27:27;;;;;;;2.63;1.60;;;9.90;99.90;;;;;;6307593;22;20171;-88
2022/12/26 12:30:15;;;;;;;4.00;2.23;;;9.90;99.90;;;;;;6321881;22;20147;-88
2022/12/26 12:32:59;;;;;;;6.70;4.97;;;9.90;99.90;;;;;;6339461;22;20175;-88
2022/12/26 12:35:37;;;;;;;9.13;5.50;;;9.90;99.90;;;;;;6313239;22;20194;-88
2022/12/26 12:38:12;;;;;;;5.07;3.43;;;9.90;99.90;;;;;;6316780;22;20157;-88
2022/12/26 12:40:57;;;;;;;2.50;2.27;;;9.80;99.90;;;;;;6342761;22;20142;-88
2022/12/26 12:43:40;;;;;;;1.70;1.60;;;9.90;99.90;;;;;;6316204;22;20174;-88
2022/12/26 12:46:21;;;;;;;1.63;1.53;;;9.90;99.90;;;;;;6316343;22;20162;-88
2022/12/26 12:48:53;;;;;;;2.07;1.80;;;9.90;99.90;;;;;;6341968;22;20223;-88
2022/12/26 12:51:27;;;;;;;2.27;1.70;;;9.90;99.90;;;;;;6342241;22;20206;-88
2022/12/26 12:54:08;;;;;;;2.13;1.93;;;9.90;99.90;;;;;;6342040;22;20189;-88
2022/12/26 12:56:56;;;;;;;2.30;2.07;;;9.90;99.90;;;;;;6316102;22;20174;-89
2022/12/26 13:00:02;;;;;;;2.13;1.60;;;9.90;99.90;;;;;;6342222;22;20146;-88
2022/12/26 13:02:43;;;;;;;2.90;2.27;;;9.80;99.90;;;;;;6315710;22;20340;-89
2022/12/26 13:05:19;;;;;;;2.20;1.97;;;9.80;99.90;;;;;;6315934;22;20151;-89
2022/12/26 13:07:52;;;;;;;1.90;1.70;;;9.80;99.90;;;;;;6341940;22;20594;-88
2022/12/26 13:10:34;;;;;;;1.70;1.60;;;9.80;99.90;;;;;;6316399;22;20179;-89
2022/12/26 13:13:35;;;;;;;2.43;1.50;;;9.80;99.90;;;;;;6310502;22;20179;-89
2022/12/26 13:16:11;;;;;;;1.97;1.50;;;9.80;99.90;;;;;;6177840;23;20181;-88
2022/12/26 13:18:55;;;;;;;2.20;1.50;;;9.90;99.90;;;;;;6323646;22;20171;-88
2022/12/26 13:21:21;;;;;;;2.17;1.53;;;9.90;99.90;;;;;;6287830;22;20147;-88
2022/12/26 13:27:37;;;;;;;3.30;2.40;;;9.90;99.90;;;;;;6367139;22;20139;-88
2022/12/26 13:30:12;;;;;;;3.43;2.70;;;9.80;99.90;;;;;;6313421;22;20165;-89
2022/12/26 13:32:38;;;;;;;2.03;1.80;;;9.80;99.90;;;;;;6313744;22;20174;-89
2022/12/26 13:35:04;;;;;;;2.23;1.83;;;9.80;99.90;;;;;;6339602;22;20287;-89
2022/12/26 13:37:37;;;;;;;2.00;1.80;;;9.90;99.90;;;;;;6312454;22;20261;-88
2022/12/26 13:40:19;;;;;;;2.43;2.00;;;9.90;99.90;;;;;;6339829;22;20154;-89
2022/12/26 13:45:41;;;;;;;2.77;2.10;;;9.90;99.90;;;;;;6339038;22;20254;-89
2022/12/26 13:48:16;;;;;;;2.80;1.73;;;9.90;99.90;;;;;;6313181;22;20162;-88
2022/12/26 13:50:45;;;;;;;2.00;1.80;;;9.90;99.90;;;;;;6313075;22;20166;-89
2022/12/26 13:53:29;;;;;;;2.63;1.53;;;9.90;99.90;;;;;;6313457;22;20200;-89
2022/12/26 13:56:03;;;;;;;1.50;1.40;;;9.90;99.90;;;;;;6338983;22;20212;-88
2022/12/26 13:58:48;;;;;;;1.77;1.60;;;9.90;99.90;;;;;;6312861;22;20147;-89
2022/12/26 14:01:52;;;;;;;1.20;1.10;;;9.90;99.90;;;;;;6313334;22;20175;-88
2022/12/26 14:04:30;;;;;;;2.47;1.20;;;10.00;99.90;;;;;;6336891;22;20167;-89
2022/12/26 14:07:26;;;;;;;1.93;1.60;;;9.90;99.90;;;;;;6312595;22;20146;-89
2022/12/26 14:10:31;;;;;;;3.17;2.43;;;10.00;99.90;;;;;;6340264;22;20147;-89
2022/12/26 14:13:00;;;;;;;5.17;2.20;;;10.00;99.90;;;;;;6312643;22;20207;-88
2022/12/26 14:15:34;;;;;;;2.53;2.00;;;10.00;99.90;;;;;;6312953;22;20178;-89
2022/12/26 14:18:02;;;;;;;2.17;1.70;;;9.90;99.90;;;;;;6339587;22;20144;-88
2022/12/26 14:20:38;;;;;;;3.43;2.43;;;9.90;99.90;;;;;;6313102;22;20162;-88
2022/12/26 14:23:23;;;;;;;4.93;1.97;;;9.90;99.90;;;;;;6313061;22;20177;-89
2022/12/26 14:26:20;;;;;;;5.17;3.20;;;9.90;99.90;;;;;;6312861;22;20166;-88
2022/12/26 14:28:48;;;;;;;2.43;1.80;;;9.90;99.90;;;;;;6313054;22;20162;-89
2022/12/26 14:31:45;;;;;;;1.90;1.70;;;9.90;99.90;;;;;;6340924;22;20154;-89
2022/12/26 14:34:26;;;;;;;2.83;2.30;;;9.90;99.90;;;;;;6307450;22;20189;-89
2022/12/26 14:37:09;;;;;;;2.70;1.87;;;9.90;99.90;;;;;;6314889;22;20150;-88
2022/12/26 14:39:55;;;;;;;1.37;1.07;;;9.90;99.90;;;;;;6340852;22;20207;-89
2022/12/26 14:45:37;;;;;;;3.60;1.67;;;9.90;99.90;;;;;;6340724;22;20179;-89
2022/12/26 14:48:23;;;;;;;2.60;2.20;;;9.90;99.90;;;;;;6328346;22;20159;-89
2022/12/26 14:51:18;;;;;;;2.00;1.70;;;9.80;99.90;;;;;;6314489;22;20236;-89
2022/12/26 14:53:45;;;;;;;2.17;1.87;;;9.80;99.90;;;;;;6288615;22;20241;-89
2022/12/26 14:56:17;;;;;;;4.07;2.20;;;9.70;99.90;;;;;;6314670;22;20166;-88
2022/12/26 14:58:48;;;;;;;4.37;2.50;;;9.80;99.90;;;;;;6315171;22;20154;-89
2022/12/26 15:01:16;;;;;;;2.67;2.10;;;9.80;99.90;;;;;;6315007;22;20173;-88
2022/12/26 15:04:03;;;;;;;4.57;3.40;;;9.80;99.90;;;;;;6314272;22;20158;-89
2022/12/26 15:06:50;;;;;;;1.90;1.70;;;9.80;99.90;;;;;;6315221;22;20200;-89
2022/12/26 15:09:53;;;;;;;2.37;1.30;;;9.70;99.90;;;;;;6341534;22;20184;-88
2022/12/26 15:12:37;;;;;;;3.20;2.70;;;9.70;99.90;;;;;;6310520;22;20257;-89
2022/12/26 15:15:51;;;;;;;3.20;2.80;;;9.70;99.90;;;;;;6342337;22;20166;-89
2022/12/26 15:18:36;;;;;;;5.87;3.90;;;9.70;99.90;;;;;;6216264;23;20153;-89
2022/12/26 15:21:20;;;;;;;3.90;2.57;;;9.60;99.90;;;;;;6323977;22;20151;-89
2022/12/26 15:24:16;;;;;;;3.93;2.30;;;9.60;99.90;;;;;;6314632;22;20150;-89
2022/12/26 15:26:44;;;;;;;1.47;1.20;;;9.60;99.90;;;;;;6314650;22;20143;-89
2022/12/26 15:29:16;;;;;;;3.33;2.47;;;9.60;99.90;;;;;;6314540;22;20166;-89
2022/12/26 15:31:45;;;;;;;2.43;1.80;;;9.50;99.90;;;;;;6340894;22;20216;-89
2022/12/26 15:34:27;;;;;;;1.87;1.37;;;9.50;99.90;;;;;;6339827;22;20197;-89
2022/12/26 15:37:12;;;;;;;2.43;1.53;;;9.50;99.90;;;;;;6340513;22;20143;-89
2022/12/26 15:40:03;;;;;;;2.33;1.43;;;9.50;99.90;;;;;;6314121;22;20229;-89
2022/12/26 15:42:32;;;;;;;1.87;1.43;;;9.50;99.90;;;;;;6340470;22;20185;-89
2022/12/26 15:45:13;;;;;;;3.77;2.40;;;9.50;99.90;;;;;;6340439;22;20162;-89
2022/12/26 15:48:20;;;;;;;1.63;1.30;;;9.50;99.90;;;;;;6314438;22;20163;-89
2022/12/26 15:51:14;;;;;;;2.17;1.50;;;9.50;99.90;;;;;;6340054;22;20178;-89
2022/12/26 15:54:13;;;;;;;3.00;1.50;;;9.50;99.90;;;;;;6314737;22;20241;-89
2022/12/26 15:57:00;;;;;;;2.73;1.63;;;9.40;99.90;;;;;;6314628;22;20161;-89
2022/12/26 15:59:33;;;;;;;1.77;1.20;;;9.40;99.90;;;;;;6339777;22;20155;-89
2022/12/26 16:02:00;;;;;;;2.73;1.57;;;9.40;99.90;;;;;;6367987;22;20185;-90
2022/12/26 16:04:40;;;;;;;1.90;1.70;;;9.40;99.90;;;;;;6314742;22;20163;-89
2022/12/26 16:07:48;;;;;;;2.20;1.53;;;9.30;99.90;;;;;;6342133;22;20585;-90
2022/12/26 16:10:23;;;;;;;4.13;1.63;;;9.30;99.90;;;;;;6307606;22;20162;-90
2022/12/26 16:13:11;;;;;;;2.13;1.40;;;9.30;99.90;;;;;;6340646;22;20174;-90
2022/12/26 16:15:54;;;;;;;2.13;1.90;;;9.30;99.90;;;;;;6314166;22;20209;-90
2022/12/26 16:18:26;;;;;;;3.27;2.00;;;9.30;99.90;;;;;;6314311;22;20155;-90
2022/12/26 16:23:42;;;;;;;2.97;2.40;;;9.20;99.90;;;;;;6368320;22;20192;-90
2022/12/26 16:26:24;;;;;;;2.03;1.67;;;9.20;99.90;;;;;;6315137;22;20174;-88
2022/12/26 16:28:51;;;;;;;2.20;2.00;;;9.30;99.90;;;;;;6313749;22;20149;-91
2022/12/26 16:31:22;;;;;;;2.63;1.70;;;9.20;99.90;;;;;;6314486;22;20158;-90
2022/12/26 16:33:51;;;;;;;2.30;2.03;;;9.20;99.90;;;;;;6313934;22;20151;-90
2022/12/26 16:36:27;;;;;;;1.90;1.70;;;9.20;99.90;;;;;;6314188;22;20155;-91
2022/12/26 16:38:54;;;;;;;1.40;1.30;;;9.20;99.90;;;;;;6314116;22;20159;-90
2022/12/26 16:41:24;;;;;;;1.90;1.60;;;9.20;99.90;;;;;;6313812;22;20159;-90
2022/12/26 16:43:53;;;;;;;2.80;1.83;;;9.20;99.90;;;;;;6340269;22;20154;-90
2022/12/26 16:46:43;;;;;;;3.50;2.63;;;9.10;99.90;;;;;;6313814;22;20238;-90
2022/12/26 16:49:10;;;;;;;5.17;3.83;;;9.10;99.90;;;;;;6367570;22;20131;-90
2022/12/26 16:51:42;;;;;;;5.37;3.57;;;9.10;99.90;;;;;;6340391;22;20171;-90
2022/12/26 16:54:20;;;;;;;3.57;2.70;;;9.10;99.90;;;;;;6340304;22;20261;-90
2022/12/26 16:56:49;;;;;;;6.13;4.10;;;9.10;99.90;;;;;;6314268;22;20219;-91
2022/12/26 16:59:23;;;;;;;7.77;5.20;;;9.00;99.90;;;;;;6340089;22;20171;-90
2022/12/26 17:01:52;;;;;;;8.83;4.83;;;9.00;99.90;;;;;;6313396;22;20186;-90
2022/12/26 17:04:21;;;;;;;15.03;6.77;;;9.00;99.90;;;;;;6339922;22;20185;-91
2022/12/26 17:06:50;;;;;;;13.03;6.57;;;9.00;99.90;;;;;;6313965;22;20158;-90
2022/12/26 17:09:16;;;;;;;9.37;5.93;;;8.90;99.90;;;;;;6315370;22;20154;-90
2022/12/26 17:11:51;;;;;;;9.57;5.30;;;8.90;99.90;;;;;;6339422;22;20182;-90
2022/12/26 17:14:25;;;;;;;8.80;5.27;;;8.90;99.90;;;;;;6339877;22;20178;-90
2022/12/26 17:16:59;;;;;;;6.27;4.57;;;8.90;99.90;;;;;;6313360;22;20226;-90
2022/12/26 17:19:31;;;;;;;5.93;4.23;;;8.90;99.90;;;;;;6313600;22;20183;-90
2022/12/26 17:22:34;;;;;;;5.73;4.00;;;8.80;99.90;;;;;;6313952;22;20232;-90
2022/12/26 17:25:26;;;;;;;4.43;3.00;;;8.80;99.90;;;;;;6304388;22;20150;-90
2022/12/26 17:28:08;;;;;;;3.87;3.03;;;8.80;99.90;;;;;;6313698;22;20158;-90
2022/12/26 17:30:39;;;;;;;2.50;2.30;;;8.70;99.90;;;;;;6339794;22;20191;-90
2022/12/26 17:33:18;;;;;;;2.23;2.00;;;8.70;99.90;;;;;;6338586;22;20232;-91
2022/12/26 17:35:51;;;;;;;2.80;2.20;;;8.70;99.90;;;;;;6339695;22;20170;-90
2022/12/26 17:38:23;;;;;;;4.63;3.00;;;8.70;99.90;;;;;;6313742;22;20154;-90
2022/12/26 17:40:54;;;;;;;7.80;5.30;;;8.70;99.90;;;;;;6312849;22;20159;-91
2022/12/26 17:43:23;;;;;;;10.70;7.37;;;8.70;99.90;;;;;;6313413;22;20506;-91
2022/12/26 17:45:49;;;;;;;12.47;8.27;;;8.60;99.90;;;;;;6367171;22;20158;-90
2022/12/26 17:48:15;;;;;;;9.47;7.37;;;8.60;99.90;;;;;;6313505;22;20185;-90
2022/12/26 17:50:43;;;;;;;8.47;7.13;;;8.60;99.90;;;;;;6313339;22;20158;-90
2022/12/26 17:53:21;;;;;;;7.93;6.30;;;8.60;99.90;;;;;;6313073;22;20209;-91
2022/12/26 17:55:48;;;;;;;7.13;5.37;;;8.60;99.90;;;;;;6301052;22;20257;-90
2022/12/26 17:58:15;;;;;;;6.27;5.00;;;8.60;99.90;;;;;;6340052;22;20203;-90
2022/12/26 18:00:42;;;;;;;7.23;5.80;;;8.60;99.90;;;;;;6312975;22;20234;-90
2022/12/26 18:03:08;;;;;;;8.53;6.40;;;8.60;99.90;;;;;;6339835;22;20254;-90
2022/12/26 18:05:35;;;;;;;5.50;3.20;;;8.60;99.90;;;;;;6313394;22;20166;-90
2022/12/26 18:08:02;;;;;;;4.13;2.43;;;8.70;99.90;;;;;;6313273;22;20158;-90
2022/12/26 18:10:31;;;;;;;2.40;2.00;;;8.80;99.90;;;;;;6338997;22;20163;-90
2022/12/26 18:12:58;;;;;;;3.80;2.50;;;8.80;99.90;;;;;;6313129;22;20200;-90
2022/12/26 18:15:29;;;;;;;4.10;2.73;;;8.90;99.90;;;;;;6313408;22;20182;-89
2022/12/26 18:17:56;;;;;;;4.63;2.70;;;9.00;99.90;;;;;;6313391;22;20155;-90
2022/12/26 18:20:25;;;;;;;3.20;2.23;;;9.10;99.90;;;;;;6312990;22;20190;-90
2022/12/26 18:22:51;;;;;;;2.00;1.50;;;9.20;99.90;;;;;;6339445;22;20174;-90
2022/12/26 18:25:20;;;;;;;1.00;0.97;;;9.20;99.90;;;;;;6338962;22;20158;-89
2022/12/26 18:27:46;;;;;;;2.17;1.97;;;9.20;99.90;;;;;;6313417;22;20154;-90
2022/12/26 18:30:34;;;;;;;4.47;3.10;;;9.20;99.90;;;;;;6313165;22;20181;-89
2022/12/26 18:33:11;;;;;;;2.60;1.97;;;9.20;99.90;;;;;;6329798;22;20182;-89
2022/12/26 18:35:39;;;;;;;2.90;1.90;;;9.30;99.90;;;;;;6313592;22;20178;-88
2022/12/26 18:38:06;;;;;;;3.33;2.50;;;9.20;99.90;;;;;;6339114;22;20161;-89
2022/12/26 18:40:38;;;;;;;3.90;1.77;;;9.20;99.90;;;;;;6339328;22;20154;-88
2022/12/26 18:43:06;;;;;;;2.00;0.80;;;9.10;99.90;;;;;;6312938;22;20208;-89
2022/12/26 18:45:33;;;;;;;1.50;0.87;;;8.90;99.90;;;;;;6312702;22;20252;-89
2022/12/26 18:48:01;;;;;;;0.60;0.60;;;8.80;99.90;;;;;;6313076;22;20165;-88
2022/12/26 18:50:30;;;;;;;3.30;0.50;;;8.60;99.90;;;;;;6338468;22;20161;-88
2022/12/26 18:53:00;;;;;;;1.27;0.50;;;8.50;99.90;;;;;;6339210;22;20209;-88
2022/12/26 18:55:30;;;;;;;0.50;0.50;;;8.50;99.90;;;;;;6339527;22;20186;-88
2022/12/26 18:57:58;;;;;;;0.40;0.40;;;8.40;99.90;;;;;;6313088;22;20160;-88
2022/12/26 19:00:25;;;;;;;0.50;0.23;;;8.30;99.90;;;;;;6338790;22;20189;-88
2022/12/26 19:02:52;;;;;;;0.80;0.43;;;8.30;99.90;;;;;;6312643;22;20175;-88
2022/12/26 19:05:26;;;;;;;0.80;0.70;;;8.30;99.90;;;;;;6340300;22;20167;-88
2022/12/26 19:07:53;;;;;;;10.13;6.73;;;8.20;99.90;;;;;;6300812;22;20159;-88
2022/12/26 19:10:23;;;;;;;4.43;3.20;;;8.30;99.90;;;;;;6338323;22;20158;-88
2022/12/26 19:12:50;;;;;;;1.20;1.10;;;8.30;99.90;;;;;;6312680;22;20224;-88
2022/12/26 19:15:17;;;;;;;0.93;0.80;;;8.20;99.90;;;;;;6313252;22;20273;-88
2022/12/26 19:17:44;;;;;;;1.07;0.90;;;8.20;99.90;;;;;;6314621;22;20196;-88
2022/12/26 19:20:23;;;;;;;0.90;0.90;;;8.20;99.90;;;;;;6340941;22;20159;-89
2022/12/26 19:22:50;;;;;;;1.43;0.80;;;8.20;99.90;;;;;;6314686;22;20178;-89